Time;durP1;ratioP1;P1;durP2;ratioP2;P2;SDS_P1;SDS_P2;PMS_P1;PMS_P2;Temp;Humidity;BMP_temperature;BMP_pressure;BME280_temperature;BME280_humidity;BME280_pressure;Samples;Min_cycle;Max_cycle;Signal;HPM_P1;HPM_P2
2023/03/11 00:02:26;;;;;;;;;;;;;;;10.10;68.65;97809.75;4438444;32;34718;-78
2023/03/11 00:04:53;;;;;;;;;;;;;;;10.09;68.16;97802.81;4411860;32;33202;-81
2023/03/11 00:07:21;;;;;;;;;;;;;;;10.22;67.42;97803.88;4398948;32;33282;-80
2023/03/11 00:09:48;;;;;;;;;;;;;;;10.22;67.21;97793.53;4430408;32;34821;-77
2023/03/11 00:12:16;;;;;;;;;;;;;;;10.18;67.37;97792.63;4411158;32;34105;-78
2023/03/11 00:14:43;;;;;;;;;;;;;;;10.08;67.51;97797.63;4419415;32;34690;-80
2023/03/11 00:17:10;;;;;;;;;;;;;;;9.96;67.34;97801.75;4432781;32;33378;-79
2023/03/11 00:19:37;;;;;;;;;;;;;;;9.77;68.63;97794.56;4451251;32;33925;-79
2023/03/11 00:22:05;;;;;;;;;;;;;;;10.08;68.02;97795.03;4409469;32;34115;-79
2023/03/11 00:24:32;;;;;;;;;;;;;;;10.20;66.84;97784.88;4405893;32;33345;-78
2023/03/11 00:27:00;;;;;;;;;;;;;;;9.79;67.93;97785.13;4411545;32;34501;-78
2023/03/11 00:29:27;;;;;;;;;;;;;;;10.00;66.52;97782.84;4442244;32;35144;-79
2023/03/11 00:31:55;;;;;;;;;;;;;;;10.14;65.65;97795.12;4440471;32;34350;-78
2023/03/11 00:34:22;;;;;;;;;;;;;;;10.19;65.33;97794.34;4406846;32;33283;-77
2023/03/11 00:36:49;;;;;;;;;;;;;;;10.09;64.70;97783.84;4394646;32;34241;-77
2023/03/11 00:39:17;;;;;;;;;;;;;;;9.77;64.62;97789.41;4390051;32;33893;-77
2023/03/11 00:41:44;;;;;;;;;;;;;;;10.04;63.90;97789.84;4406200;32;35605;-77
2023/03/11 00:44:12;;;;;;;;;;;;;;;10.19;62.73;97806.41;4403911;32;33502;-77
2023/03/11 00:46:39;;;;;;;;;;;;;;;10.10;62.43;97798.50;4414804;32;34986;-78
2023/03/11 00:49:07;;;;;;;;;;;;;;;10.12;61.46;97807.16;4398514;32;33993;-81
2023/03/11 00:51:34;;;;;;;;;;;;;;;10.22;61.54;97788.34;4418700;32;34970;-80
2023/03/11 00:54:01;;;;;;;;;;;;;;;10.23;61.18;97816.81;4454151;32;32932;-77
2023/03/11 00:56:30;;;;;;;;;;;;;;;10.22;61.48;97811.66;4402293;32;34551;-78
2023/03/11 00:58:57;;;;;;;;;;;;;;;10.22;60.87;97819.41;4404187;32;34105;-82
2023/03/11 01:01:24;;;;;;;;;;;;;;;10.21;60.95;97825.41;4392326;32;34776;-80
2023/03/11 01:03:51;;;;;;;;;;;;;;;9.84;62.54;97802.44;4380184;32;32282;-77
2023/03/11 01:06:19;;;;;;;;;;;;;;;10.14;60.98;97805.47;4402376;32;34548;-78
2023/03/11 01:08:46;;;;;;;;;;;;;;;10.19;60.17;97815.03;4400407;32;35402;-78
2023/03/11 01:11:13;;;;;;;;;;;;;;;9.57;61.07;97808.06;4396596;32;34276;-79
2023/03/11 01:13:41;;;;;;;;;;;;;;;10.03;60.04;97815.69;4398623;32;33342;-77
2023/03/11 01:16:08;;;;;;;;;;;;;;;9.98;60.72;97805.25;4394916;32;33786;-80
2023/03/11 01:18:35;;;;;;;;;;;;;;;10.11;59.81;97805.44;4404390;32;34087;-77
2023/03/11 01:21:03;;;;;;;;;;;;;;;9.86;60.86;97809.38;4436483;32;34737;-81
2023/03/11 01:23:31;;;;;;;;;;;;;;;10.26;60.15;97810.84;4432561;32;34120;-78
2023/03/11 01:25:59;;;;;;;;;;;;;;;9.87;60.48;97801.66;4392127;32;34047;-77
2023/03/11 01:28:26;;;;;;;;;;;;;;;9.82;61.04;97796.38;4398900;32;34129;-77
2023/03/11 01:30:53;;;;;;;;;;;;;;;9.76;61.56;97803.19;4439437;32;33758;-79
2023/03/11 01:33:21;;;;;;;;;;;;;;;9.87;61.54;97805.94;4436553;32;33175;-79
2023/03/11 01:35:48;;;;;;;;;;;;;;;9.81;60.78;97811.88;4410754;32;35383;-80
2023/03/11 01:38:16;;;;;;;;;;;;;;;9.83;61.88;97797.25;4440632;32;32342;-77
2023/03/11 01:40:44;;;;;;;;;;;;;;;9.98;61.12;97800.06;4452931;32;34301;-79
2023/03/11 01:43:30;;;;;;;;;;;;;;;9.76;61.83;97804.06;4454512;32;33923;-81
2023/03/11 01:46:00;;;;;;;;;;;;;;;9.15;64.36;97803.88;4453762;32;33777;-79
2023/03/11 01:48:28;;;;;;;;;;;;;;;9.51;63.27;97796.75;4454078;32;33693;-78
2023/03/11 01:50:55;;;;;;;;;;;;;;;9.38;64.19;97806.87;4453304;32;34021;-79
2023/03/11 01:53:24;;;;;;;;;;;;;;;9.51;63.93;97807.09;4453851;32;33942;-81
2023/03/11 01:55:51;;;;;;;;;;;;;;;9.41;64.06;97812.09;4439513;32;34075;-78
2023/03/11 01:58:26;;;;;;;;;;;;;;;9.61;63.23;97803.81;4440013;32;33604;-80
2023/03/11 02:00:54;;;;;;;;;;;;;;;9.35;64.24;97812.00;4453957;32;34300;-78
2023/03/11 02:03:32;;;;;;;;;;;;;;;9.81;63.10;97807.59;4439693;32;34099;-80
2023/03/11 02:06:00;;;;;;;;;;;;;;;9.58;63.23;97802.06;4453293;32;33853;-79
2023/03/11 02:08:29;;;;;;;;;;;;;;;9.51;63.37;97820.87;4427391;32;33958;-77
2023/03/11 02:10:56;;;;;;;;;;;;;;;9.09;65.49;97819.25;4453369;32;34105;-77
2023/03/11 02:13:23;;;;;;;;;;;;;;;9.68;63.26;97820.28;4439501;32;32976;-76
2023/03/11 02:15:51;;;;;;;;;;;;;;;9.42;64.08;97818.12;4436868;32;34085;-78
2023/03/11 02:18:19;;;;;;;;;;;;;;;9.65;62.85;97814.22;4452569;32;33815;-80
2023/03/11 02:20:49;;;;;;;;;;;;;;;9.74;62.08;97810.06;4438626;32;34702;-77
2023/03/11 02:23:17;;;;;;;;;;;;;;;9.23;62.77;97807.47;4454027;32;33191;-81
2023/03/11 02:26:04;;;;;;;;;;;;;;;9.60;62.37;97808.13;4438929;32;34689;-76
2023/03/11 02:28:32;;;;;;;;;;;;;;;9.45;61.80;97803.56;4441461;32;34312;-79
2023/03/11 02:30:59;;;;;;;;;;;;;;;9.84;60.06;97801.59;4453794;32;34594;-81
2023/03/11 02:33:28;;;;;;;;;;;;;;;9.58;60.47;97804.63;4453956;32;33399;-79
2023/03/11 02:35:56;;;;;;;;;;;;;;;9.72;60.09;97806.59;4403648;32;34151;-79
2023/03/11 02:38:23;;;;;;;;;;;;;;;9.60;59.95;97796.88;4415658;32;33844;-80
2023/03/11 02:40:55;;;;;;;;;;;;;;;9.81;59.64;97797.25;4453187;32;33874;-77
2023/03/11 02:43:27;;;;;;;;;;;;;;;9.47;59.54;97805.31;4453393;32;33115;-77
2023/03/11 02:45:54;;;;;;;;;;;;;;;9.57;58.92;97813.22;4414749;32;33914;-77
2023/03/11 02:48:22;;;;;;;;;;;;;;;9.55;58.24;97808.88;4410418;32;34076;-77
2023/03/11 02:50:50;;;;;;;;;;;;;;;9.64;56.95;97809.91;4452896;32;33819;-78
2023/03/11 02:53:18;;;;;;;;;;;;;;;9.73;57.32;97813.47;4453141;32;34187;-79
2023/03/11 02:55:45;;;;;;;;;;;;;;;9.77;56.07;97804.91;4392512;32;34224;-76
2023/03/11 02:58:13;;;;;;;;;;;;;;;9.66;57.25;97817.69;4443310;32;33010;-79
2023/03/11 03:00:40;;;;;;;;;;;;;;;9.50;58.46;97826.00;4453296;32;35077;-80
2023/03/11 03:03:09;;;;;;;;;;;;;;;9.64;57.70;97832.31;4416810;32;32601;-77
2023/03/11 03:05:37;;;;;;;;;;;;;;;9.74;56.22;97820.41;4452684;32;33974;-77
2023/03/11 03:08:05;;;;;;;;;;;;;;;9.72;57.13;97837.59;4452881;32;33949;-78
2023/03/11 03:10:32;;;;;;;;;;;;;;;9.45;56.79;97828.53;4417014;32;33525;-76
2023/03/11 03:12:59;;;;;;;;;;;;;;;9.48;55.96;97838.91;4421010;32;33914;-80
2023/03/11 03:15:27;;;;;;;;;;;;;;;9.65;55.55;97842.66;4451792;32;32630;-79
2023/03/11 03:17:55;;;;;;;;;;;;;;;9.57;53.30;97836.47;4452358;32;34221;-77
2023/03/11 03:20:22;;;;;;;;;;;;;;;9.61;52.51;97830.50;4452843;32;34077;-77
2023/03/11 03:22:50;;;;;;;;;;;;;;;9.48;52.16;97841.50;4452156;32;33163;-80
2023/03/11 03:25:17;;;;;;;;;;;;;;;9.64;52.21;97866.78;4452204;32;34342;-78
2023/03/11 03:27:45;;;;;;;;;;;;;;;9.28;52.50;97855.78;4453027;32;33656;-76
2023/03/11 03:30:14;;;;;;;;;;;;;;;9.47;49.80;97842.34;4452189;32;33893;-77
2023/03/11 03:32:41;;;;;;;;;;;;;;;9.43;48.88;97809.53;4452440;32;33964;-78
2023/03/11 03:35:09;;;;;;;;;;;;;;;9.27;49.30;97828.19;4449817;32;34139;-78
2023/03/11 03:37:38;;;;;;;;;;;;;;;9.22;49.22;97865.16;4393084;32;34443;-77
2023/03/11 03:40:06;;;;;;;;;;;;;;;9.03;49.51;97844.97;4391611;32;34260;-79
2023/03/11 03:42:34;;;;;;;;;;;;;;;9.24;49.14;97860.00;4447436;32;33945;-76
2023/03/11 03:45:02;;;;;;;;;;;;;;;9.14;49.10;97848.62;4395665;32;34901;-78
2023/03/11 03:47:30;;;;;;;;;;;;;;;9.24;48.98;97840.22;4399071;32;34084;-76
2023/03/11 03:49:58;;;;;;;;;;;;;;;8.98;49.21;97846.59;4409685;32;33904;-77
2023/03/11 03:52:26;;;;;;;;;;;;;;;8.99;50.69;97843.19;4380449;32;33267;-77
2023/03/11 03:54:53;;;;;;;;;;;;;;;8.92;50.21;97856.81;4385442;32;34612;-77
2023/03/11 03:57:21;;;;;;;;;;;;;;;8.88;49.89;97849.84;4376402;32;33593;-77
2023/03/11 03:59:48;;;;;;;;;;;;;;;8.79;49.99;97840.22;4403215;32;34032;-78
2023/03/11 04:02:15;;;;;;;;;;;;;;;8.73;49.64;97845.22;4411862;32;34070;-77
2023/03/11 04:04:43;;;;;;;;;;;;;;;8.52;51.16;97858.53;4413601;32;33840;-76
2023/03/11 04:07:10;;;;;;;;;;;;;;;8.75;49.81;97849.59;4399578;32;33899;-77
2023/03/11 04:09:39;;;;;;;;;;;;;;;8.72;50.53;97862.44;4401840;32;33620;-77
2023/03/11 04:12:06;;;;;;;;;;;;;;;8.80;50.36;97873.78;4391873;32;33485;-77
2023/03/11 04:14:33;;;;;;;;;;;;;;;8.56;50.23;97862.97;4445416;32;34174;-77
2023/03/11 04:17:01;;;;;;;;;;;;;;;8.59;50.93;97886.22;4437987;32;34669;-76
2023/03/11 04:19:28;;;;;;;;;;;;;;;8.43;50.01;97873.00;4423919;32;34019;-78
2023/03/11 04:22:15;;;;;;;;;;;;;;;8.61;49.29;97894.88;4415529;32;34068;-76
2023/03/11 04:24:42;;;;;;;;;;;;;;;8.35;48.54;97882.25;4387201;32;34726;-76
2023/03/11 04:27:09;;;;;;;;;;;;;;;8.39;46.83;97881.47;4389642;32;33644;-75
2023/03/11 04:29:38;;;;;;;;;;;;;;;8.50;47.05;97888.59;4427874;32;33670;-76
2023/03/11 04:32:06;;;;;;;;;;;;;;;8.21;46.75;97878.50;4428136;32;33225;-76
2023/03/11 04:34:35;;;;;;;;;;;;;;;8.18;46.25;97886.16;4412227;32;33792;-77
2023/03/11 04:37:03;;;;;;;5.65;0.60;;;;;;;8.26;46.09;97887.19;4418949;32;33036;-75
2023/03/11 04:39:31;;;;;;;;;;;;;;;8.29;44.85;97897.59;4442113;32;33947;-80
2023/03/11 04:41:59;;;;;;;;;;;;;;;8.06;43.88;97908.22;4387517;32;33997;-77
2023/03/11 04:44:30;;;;;;;;;;;;;;;8.08;44.01;97885.06;4398582;32;33607;-78
2023/03/11 04:46:58;;;;;;;;;;;;;;;7.68;44.93;97859.16;4413863;32;32560;-76
2023/03/11 04:49:25;;;;;;;;;;;;;;;7.39;44.79;97876.47;4399380;32;34166;-78
2023/03/11 04:51:52;;;;;;;;;;;;;;;7.42;42.68;97871.41;4407187;32;33513;-78
2023/03/11 04:54:20;;;;;;;;;;;;;;;7.62;42.79;97851.28;4404144;32;34084;-78
2023/03/11 04:56:47;;;;;;;;;;;;;;;7.54;42.58;97883.72;4401374;32;34025;-80
2023/03/11 04:59:15;;;;;;;;;;;;;;;7.11;42.07;97885.16;4371029;32;33613;-77
2023/03/11 05:01:42;;;;;;;;;;;;;;;7.12;42.63;97886.03;4435486;32;33192;-79
2023/03/11 05:04:10;;;;;;;;;;;;;;;6.95;42.71;97885.56;4389331;32;34082;-79
2023/03/11 05:06:38;;;;;;;;;;;;;;;6.95;43.83;97882.97;4395769;32;33526;-79
2023/03/11 05:09:06;;;;;;;;;;;;;;;7.19;44.16;97893.97;4420780;32;34801;-79
2023/03/11 05:11:33;;;;;;;;;;;;;;;7.06;45.15;97876.44;4394332;32;32766;-76
2023/03/11 05:14:01;;;;;;;;;;;;;;;7.03;45.23;97873.75;4419627;32;33872;-77
2023/03/11 05:16:28;;;;;;;;;;;;;;;6.85;45.79;97887.84;4404997;32;34307;-78
2023/03/11 05:18:55;;;;;;;;;;;;;;;6.83;45.55;97894.66;4431406;32;34151;-77
2023/03/11 05:21:23;;;;;;;;;;;;;;;6.52;47.38;97892.03;4413932;32;32966;-76
2023/03/11 05:23:52;;;;;;;;;;;;;;;6.45;47.46;97884.13;4388608;32;33882;-79
2023/03/11 05:26:19;;;;;;;;;;;;;;;6.67;46.68;97916.50;4392625;32;34281;-77
2023/03/11 05:28:47;;;;;;;;;;;;;;;6.50;47.77;97904.84;4387118;32;34286;-78
2023/03/11 05:31:14;;;;;;;;;;;;;;;6.34;49.18;97918.94;4388648;32;33656;-77
2023/03/11 05:33:41;;;;;;;;;;;;;;;6.37;48.98;97924.16;4444083;32;33842;-78
2023/03/11 05:36:10;;;;;;;;;;;;;;;6.43;49.08;97919.22;4403680;32;33876;-79
2023/03/11 05:38:38;;;;;;;;;;;;;;;6.49;48.13;97955.41;4423381;32;33127;-76
2023/03/11 05:41:06;;;;;;;;;;;;;;;6.12;49.58;97931.94;4414530;32;33940;-77
2023/03/11 05:43:34;;;;;;;;;;;;;;;6.26;49.66;97962.41;4397504;32;34837;-77
2023/03/11 05:46:02;;;;;;;;;;;;;;;5.92;49.66;97960.38;4406063;32;34939;-80
2023/03/11 05:48:30;;;;;;;;;;;;;;;6.06;49.50;97969.44;4395272;32;34214;-79
2023/03/11 05:50:58;;;;;;;;;;;;;;;6.36;49.12;97979.00;4396002;32;33116;-78
2023/03/11 05:53:25;;;;;;;;;;;;;;;6.00;49.66;97976.09;4380327;32;34949;-80
2023/03/11 05:55:56;;;;;;;;;;;;;;;6.22;48.94;97969.94;4388588;32;34279;-80
2023/03/11 05:58:24;;;;;;;;;;;;;;;6.52;47.23;97958.91;4414778;32;33881;-77
2023/03/11 06:00:52;;;;;;;;;;;;;;;6.63;47.83;97960.13;4399845;32;33469;-80
2023/03/11 06:03:19;;;;;;;;;;;;;;;6.34;48.94;97970.38;4419252;32;34169;-78
2023/03/11 06:05:47;;;;;;;;;;;;;;;6.27;48.53;97976.13;4397353;32;34046;-77
2023/03/11 06:08:14;;;;;;;;;;;;;;;6.08;49.03;97972.06;4416523;32;34862;-78
2023/03/11 06:10:42;;;;;;;;;;;;;;;6.24;48.92;97988.91;4402434;32;33226;-78
2023/03/11 06:13:10;;;;;;;;;;;;;;;5.84;49.07;97961.84;4435760;32;33625;-79
2023/03/11 06:15:38;;;;;;;;;;;;;;;6.07;48.46;97986.63;4397403;32;33907;-77
2023/03/11 06:18:06;;;;;;;;;;;;;;;5.67;49.31;97974.97;4412735;32;34221;-79
2023/03/11 06:20:35;;;;;;;;;;;;;;;5.72;49.73;97983.72;4412624;32;34057;-78
2023/03/11 06:23:02;;;;;;;;;;;;;;;5.98;48.80;98006.00;4403675;32;34568;-79
2023/03/11 06:25:29;;;;;;;;;;;;;;;6.05;48.73;98026.84;4411754;32;34259;-79
2023/03/11 06:27:56;;;;;;;;;;;;;;;5.80;48.80;98022.50;4413005;32;34161;-79
2023/03/11 06:30:24;;;;;;;;;;;;;;;5.90;48.54;98039.12;4398351;32;33292;-80
2023/03/11 06:32:52;;;;;;;;;;;;;;;6.17;48.53;98043.50;4417102;32;34162;-78
2023/03/11 06:35:19;;;;;;;;;;;;;;;6.07;47.74;98050.03;4415313;32;33927;-80
2023/03/11 06:37:46;;;;;;;;;;;;;;;5.78;48.34;98049.84;4431736;32;34155;-79
2023/03/11 06:40:14;;;;;;;;;;;;;;;5.54;48.87;98054.97;4436774;32;33892;-82
2023/03/11 06:42:41;;;;;;;;;;;;;;;5.60;47.86;98070.63;4421200;32;34192;-81
2023/03/11 06:45:09;;;;;;;;;;;;;;;5.82;48.07;98066.25;4412564;32;34196;-81
2023/03/11 06:47:37;;;;;;;;;;;;;;;5.51;48.88;98086.56;4409367;32;34865;-77
2023/03/11 06:50:07;;;;;;;;;;;;;;;5.58;47.38;98082.53;4390739;32;33510;-81
2023/03/11 06:52:35;;;;;;;;;;;;;;;5.47;47.69;98091.53;4408015;32;33382;-83
2023/03/11 06:55:02;;;;;;;;;;;;;;;5.41;47.54;98099.00;4431269;32;34954;-79
2023/03/11 06:57:30;;;;;;;;;;;;;;;5.61;46.69;98103.19;4402681;32;34321;-77
2023/03/11 06:59:58;;;;;;;;;;;;;;;5.76;47.09;98087.47;4365692;32;32441;-81
2023/03/11 07:02:25;;;;;;;;;;;;;;;6.02;46.90;98101.25;4410319;32;34061;-80
2023/03/11 07:04:52;;;;;;;;;;;;;;;5.69;45.96;98076.06;4417569;32;34009;-79
2023/03/11 07:07:20;;;;;;;;;;;;;;;5.48;46.13;98095.84;4390883;32;33981;-79
2023/03/11 07:09:47;;;;;;;;;;;;;;;5.59;46.09;98101.38;4393791;32;33644;-79
2023/03/11 07:12:14;;;;;;;;;;;;;;;5.64;45.92;98085.31;4403694;32;34217;-78
2023/03/11 07:14:42;;;;;;;;;;;;;;;5.80;44.85;98117.59;4395097;32;33518;-79
2023/03/11 07:17:10;;;;;;;;;;;;;;;5.93;45.09;98116.34;4445133;32;34655;-78
2023/03/11 07:19:37;;;;;;;;;;;;;;;6.19;44.90;98113.84;4414752;32;33189;-79
2023/03/11 07:22:04;;;;;;;;;;;;;;;6.10;44.81;98110.13;4450974;32;32458;-81
2023/03/11 07:24:32;;;;;;;;;;;;;;;5.91;44.57;98093.16;4413069;32;35118;-78
2023/03/11 07:26:59;;;;;;;;;;;;;;;6.43;44.23;98130.12;4418068;32;33836;-80
2023/03/11 07:29:26;;;;;;;;;;;;;;;6.41;42.76;98089.72;4395912;32;33890;-78
2023/03/11 07:31:54;;;;;;;;;;;;;;;5.85;44.04;98122.88;4424718;32;34841;-80
2023/03/11 07:34:21;;;;;;;;;;;;;;;6.19;43.93;98118.97;4421467;32;34296;-78
2023/03/11 07:36:48;;;;;;;;;;;;;;;5.80;44.12;98099.59;4411882;32;34055;-83
2023/03/11 07:39:17;;;;;;;;;;;;;;;6.02;43.95;98121.81;4419151;32;33110;-78
2023/03/11 07:41:45;;;;;;;;;;;;;;;6.09;44.14;98112.66;4386743;32;33468;-79
2023/03/11 07:44:12;;;;;;;;;;;;;;;6.52;44.05;98100.38;4394636;32;34073;-82
2023/03/11 07:46:40;;;;;;;;;;;;;;;5.83;44.26;98094.59;4388890;32;34232;-79
2023/03/11 07:49:07;;;;;;;;;;;;;;;5.71;43.87;98100.12;4417071;32;33268;-80
2023/03/11 07:51:35;;;;;;;;;;;;;;;5.68;44.74;98091.47;4424725;32;34861;-79
2023/03/11 07:54:03;;;;;;;;;;;;;;;5.70;44.34;98107.81;4402046;32;34266;-78
2023/03/11 07:56:31;;;;;;;;;;;;;;;5.65;44.52;98099.91;4412975;32;34272;-77
2023/03/11 07:58:59;;;;;;;;;;;;;;;5.45;44.73;98100.88;4418890;32;33286;-79
2023/03/11 08:01:29;;;;;;;;;;;;;;;5.26;45.16;98084.75;4453011;32;34456;-78
2023/03/11 08:03:57;;;;;;;;;;;;;;;5.41;44.76;98093.84;4418360;32;34044;-81
2023/03/11 08:06:27;;;;;;;;;;;;;;;5.29;46.27;98082.31;4393516;32;34721;-79
2023/03/11 08:08:55;;;;;;;;;;;;;;;5.49;45.00;98071.91;4438030;32;33758;-78
2023/03/11 08:11:22;;;;;;;;;;;;;;;5.58;44.73;98069.69;4407713;32;34858;-79
2023/03/11 08:13:50;;;;;;;;;;;;;;;5.59;45.04;98076.56;4410818;32;34850;-78
2023/03/11 08:16:18;;;;;;;;;;;;;;;5.86;44.07;98089.53;4399289;32;32919;-79
2023/03/11 08:18:46;;;;;;;;;;;;;;;5.92;44.39;98104.28;4385045;32;33317;-78
2023/03/11 08:21:14;;;;;;;;;;;;;;;5.97;44.42;98128.50;4416391;32;34420;-81
2023/03/11 08:23:42;;;;;;;;;;;;;;;5.75;43.94;98133.66;4402995;32;34232;-80
2023/03/11 08:26:11;;;;;;;;;;;;;;;5.97;43.68;98118.22;4392803;32;34101;-80
2023/03/11 08:28:38;;;;;;;;;;;;;;;5.99;42.55;98070.31;4413197;32;33013;-79
2023/03/11 08:31:16;;;;;;;;;;;;;;;5.89;43.30;98068.19;4416588;32;34127;-80
2023/03/11 08:33:44;;;;;;;;;;;;;;;5.84;42.93;98074.91;4386434;32;33698;-78
2023/03/11 08:36:11;;;;;;;;;;;;;;;6.02;43.35;98034.44;4440125;32;34019;-79
2023/03/11 08:38:39;;;;;;;;;;;;;;;6.15;43.69;98045.16;4378178;32;33247;-81
2023/03/11 08:41:07;;;;;;;;;;;;;;;5.84;44.16;98038.91;4405976;32;33934;-79
2023/03/11 08:43:34;;;;;;;3.10;2.08;;;;;;;6.06;44.32;98031.12;4446576;32;33820;-77
2023/03/11 08:46:05;;;;;;;4.07;0.95;;;;;;;6.33;44.68;98040.59;4434745;32;34001;-80
2023/03/11 08:48:34;;;;;;;1.87;0.90;;;;;;;6.27;43.68;98022.41;4410537;32;33261;-78
2023/03/11 08:51:01;;;;;;;5.00;0.85;;;;;;;6.25;42.18;98071.22;4399772;32;33044;-79
2023/03/11 08:53:29;;;;;;;2.90;0.70;;;;;;;6.18;42.55;98118.13;4412087;32;34285;-81
2023/03/11 08:55:57;;;;;;;6.30;1.20;;;;;;;6.51;41.87;98068.66;4384084;32;33958;-79
2023/03/11 08:58:24;;;;;;;7.10;1.20;;;;;;;6.57;42.07;98086.84;4383116;32;33896;-79
2023/03/11 09:00:52;;;;;;;2.47;0.67;;;;;;;6.60;43.20;98114.38;4397248;32;34262;-78
2023/03/11 09:03:21;;;;;;;1.83;0.95;;;;;;;6.49;43.50;98114.91;4389677;32;33783;-80
2023/03/11 09:05:48;;;;;;;4.90;0.90;;;;;;;6.62;41.72;98094.72;4413360;32;33147;-81
2023/03/11 09:08:16;;;;;;;;;;;;;;;6.64;43.20;98103.34;4395353;32;33618;-83
2023/03/11 09:10:43;;;;;;;;;;;;;;;6.64;41.79;98123.94;4406070;32;33548;-80
2023/03/11 09:13:11;;;;;;;;;;;;;;;6.64;41.62;98108.50;4405190;32;33735;-81
2023/03/11 09:15:38;;;;;;;1.17;0.60;;;;;;;6.33;41.68;98142.59;4407125;32;34203;-77
2023/03/11 09:18:07;;;;;;;;;;;;;;;6.33;42.74;98169.19;4399036;32;33141;-79
2023/03/11 09:20:37;;;;;;;3.53;0.77;;;;;;;6.37;42.66;98155.59;4412964;32;34022;-80
2023/03/11 09:23:05;;;;;;;1.02;0.50;;;;;;;6.35;42.90;98162.41;4410246;32;33662;-80
2023/03/11 09:25:33;;;;;;;;;;;;;;;6.56;42.90;98176.84;4401583;32;33335;-80
2023/03/11 09:28:00;;;;;;;;;;;;;;;6.78;43.49;98199.91;4425092;32;33585;-79
2023/03/11 09:30:27;;;;;;;;;;;;;;;6.47;42.85;98162.84;4400059;32;33696;-81
2023/03/11 09:32:55;;;;;;;;;;;;;;;6.06;43.31;98190.50;4393265;32;33967;-81
2023/03/11 09:35:22;;;;;;;;;;;;;;;6.10;42.88;98202.69;4389966;32;34611;-80
2023/03/11 09:37:50;;;;;;;;;;;;;;;6.13;43.35;98196.75;4402427;32;33619;-79
2023/03/11 09:40:18;;;;;;;;;;;;;;;6.25;43.89;98214.31;4401971;32;33581;-81
2023/03/11 09:42:48;;;;;;;;;;;;;;;5.93;43.01;98221.72;4390596;32;34230;-80
2023/03/11 09:45:17;;;;;;;;;;;;;;;6.05;42.69;98224.75;4404375;32;33254;-78
2023/03/11 09:47:57;;;;;;;;;;;;;;;6.38;43.16;98233.66;4397392;32;32897;-79
2023/03/11 09:50:25;;;;;;;;;;;;;;;6.47;42.95;98227.16;4440034;32;33830;-82
2023/03/11 09:53:07;;;;;;;;;;;;;;;6.55;42.43;98247.09;4386852;32;34067;-81
2023/03/11 09:55:43;;;;;;;;;;;;;;;6.74;41.90;98223.78;4445967;32;34147;-83
2023/03/11 09:58:20;;;;;;;1.80;0.53;;;;;;;6.99;42.21;98219.44;4418978;32;33114;-80
2023/03/11 10:00:48;;;;;;;;;;;;;;;6.95;41.88;98212.47;4409787;32;34347;-79
2023/03/11 10:03:30;;;;;;;;;;;;;;;6.76;41.93;98247.87;4387593;32;34798;-79
2023/03/11 10:06:01;;;;;;;;;;;;;;;6.66;41.44;98220.06;4371660;32;33849;-81
2023/03/11 10:08:33;;;;;;;;;;;;;;;6.52;42.64;98216.13;4389547;32;32028;-79
2023/03/11 10:11:09;;;;;;;;;;;;;;;6.36;43.65;98236.16;4391087;32;35037;-78
2023/03/11 10:13:44;;;;;;;;;;;;;;;6.38;44.06;98210.50;4390385;32;35157;-83
2023/03/11 10:16:17;;;;;;;;;;;;;;;6.39;43.50;98228.53;4390517;32;34106;-78
2023/03/11 10:18:46;;;;;;;;;;;;;;;6.26;43.17;98239.25;4379425;32;33468;-81
2023/03/11 10:21:24;;;;;;;;;;;;;;;6.14;43.87;98233.63;4384449;32;33939;-79
2023/03/11 10:23:52;;;;;;;;;;;;;;;6.05;43.63;98247.91;4385591;32;34181;-78
2023/03/11 10:26:21;;;;;;;;;;;;;;;6.23;43.94;98265.69;4415678;32;34464;-80
2023/03/11 10:28:53;;;;;;;;;;;;;;;6.09;43.98;98260.03;4399143;32;33490;-79
2023/03/11 10:31:24;;;;;;;;;;;;;;;6.20;44.09;98303.25;4363304;32;34320;-80
2023/03/11 10:33:59;;;;;;;;;;;;;;;6.04;43.94;98294.09;4397956;32;33811;-80
2023/03/11 10:36:41;;;;;;;;;;;;;;;5.83;44.73;98307.84;4385998;32;34627;-78
2023/03/11 10:39:09;;;;;;;;;;;;;;;5.81;45.86;98317.16;4418909;32;33135;-78
2023/03/11 10:41:43;;;;;;;;;;;;;;;5.87;45.98;98321.66;4393224;32;34054;-79
2023/03/11 10:44:10;;;;;;;;;;;;;;;6.13;45.63;98320.16;4385188;32;34920;-77
2023/03/11 10:46:38;;;;;;;;;;;;;;;6.25;45.63;98324.91;4419617;32;33711;-78
2023/03/11 10:49:15;;;;;;;;;;;;;;;6.22;45.76;98314.47;4437024;32;33143;-79
2023/03/11 10:51:47;;;;;;;;;;;;;;;6.76;45.09;98309.66;4403309;32;32518;-77
2023/03/11 10:54:28;;;;;;;;;;;;;;;6.76;44.47;98314.78;4438247;32;34808;-78
2023/03/11 10:56:57;;;;;;;;;;;;;;;6.90;45.02;98297.25;4413977;32;34038;-76
2023/03/11 10:59:24;;;;;;;;;;;;;;;6.78;44.95;98301.94;4407571;32;32976;-76
2023/03/11 11:02:00;;;;;;;1.40;0.60;;;;;;;7.06;44.16;98306.38;4409593;32;34214;-78
2023/03/11 11:04:37;;;;;;;6.85;1.10;;;;;;;7.27;44.27;98306.25;4436157;32;33827;-78
2023/03/11 11:07:40;;;;;;;4.65;0.62;;;;;;;7.21;43.70;98309.47;4391673;32;33619;-77
2023/03/11 11:10:11;;;;;;;3.37;0.70;;;;;;;7.49;43.16;98300.09;4389963;32;33999;-79
2023/03/11 11:12:58;;;;;;;6.57;1.10;;;;;;;7.37;43.72;98316.00;4383872;32;34183;-79
2023/03/11 11:15:49;;;;;;;;;;;;;;;7.81;42.83;98308.00;4386693;32;33857;-78
2023/03/11 11:18:22;;;;;;;;;;;;;;;7.62;42.08;98327.13;4442865;32;34237;-77
2023/03/11 11:21:06;;;;;;;;;;;;;;;7.12;41.82;98319.47;4386249;32;33540;-78
2023/03/11 11:23:35;;;;;;;;;;;;;;;6.82;42.42;98330.44;4369595;32;33828;-75
2023/03/11 11:26:09;;;;;;;;;;;;;;;6.64;43.17;98345.19;4402560;32;34896;-77
2023/03/11 11:28:36;;;;;;;;;;;;;;;6.46;44.58;98340.25;4403909;32;33633;-76
2023/03/11 11:31:05;;;;;;;;;;;;;;;6.98;44.70;98352.44;4383365;32;33225;-78
2023/03/11 11:33:34;;;;;;;;;;;;;;;7.06;42.64;98345.00;4423147;32;34814;-78
2023/03/11 11:36:03;;;;;;;;;;;;;;;6.82;42.98;98342.44;4375484;32;33618;-77
2023/03/11 11:38:30;;;;;;;;;;;;;;;6.68;43.59;98337.66;4386768;32;33872;-79
2023/03/11 11:40:58;;;;;;;;;;;;;;;7.02;43.12;98353.44;4409276;32;33922;-77
2023/03/11 11:43:45;;;;;;;;;;;;;;;7.25;43.00;98368.00;4384665;32;34209;-77
2023/03/11 11:46:20;;;;;;;;;;;;;;;6.98;42.24;98357.59;4451478;32;35096;-78
2023/03/11 11:48:55;;;;;;;;;;;;;;;6.69;44.23;98370.28;4377303;32;34405;-77
2023/03/11 11:51:29;;;;;;;;;;;;;;;6.58;43.51;98368.13;4403670;32;32541;-77
2023/03/11 11:53:58;;;;;;;;;;;;;;;6.55;43.03;98368.00;4432556;32;32721;-77
2023/03/11 11:56:26;;;;;;;;;;;;;;;6.76;43.81;98376.56;4381487;32;33779;-79
2023/03/11 11:58:54;;;;;;;;;;;;;;;6.79;43.27;98386.94;4375371;32;33234;-76
2023/03/11 12:01:29;;;;;;;;;;;;;;;6.69;42.60;98380.56;4386964;32;32948;-78
2023/03/11 12:04:15;;;;;;;;;;;;;;;6.52;43.28;98391.06;4392806;32;33972;-78
2023/03/11 12:07:01;;;;;;;;;;;;;;;6.68;43.38;98383.09;4377515;32;34107;-77
2023/03/11 12:09:29;;;;;;;;;;;;;;;6.78;42.39;98372.34;4386904;32;33526;-77
2023/03/11 12:12:00;;;;;;;;;;;;;;;7.00;42.17;98381.69;4379673;32;33303;-78
2023/03/11 12:14:35;;;;;;;;;;;;;;;7.01;41.93;98372.28;4385160;32;33828;-77
2023/03/11 12:17:02;;;;;;;;;;;;;;;6.91;41.96;98371.06;4406792;32;34852;-76
2023/03/11 12:19:38;;;;;;;8.95;2.22;;;;;;;6.63;42.59;98374.34;4417126;32;34741;-78
2023/03/11 12:22:28;;;;;;;9.75;2.37;;;;;;;7.23;42.91;98377.37;4374317;32;32619;-79
2023/03/11 12:24:55;;;;;;;;;;;;;;;7.21;42.03;98371.28;4379328;32;34359;-80
2023/03/11 12:27:30;;;;;;;;;;;;;;;7.53;41.00;98358.62;4378404;32;33561;-77
2023/03/11 12:29:59;;;;;;;;;;;;;;;7.54;41.62;98351.78;4387278;32;34100;-77
2023/03/11 12:32:29;;;;;;;;;;;;;;;7.35;40.84;98332.25;4379039;32;33175;-78
2023/03/11 12:35:19;;;;;;;7.12;0.73;;;;;;;7.16;40.80;98349.63;4376766;32;34266;-78
2023/03/11 12:37:54;;;;;;;;;;;;;;;6.98;41.62;98344.72;4390770;32;34443;-78
2023/03/11 12:40:40;;;;;;;;;;;;;;;7.39;41.21;98347.00;4427348;32;34685;-76
2023/03/11 12:43:34;;;;;;;2.83;0.90;;;;;;;7.59;40.80;98351.12;4399810;32;33396;-77
2023/03/11 12:46:06;;;;;;;5.22;0.95;;;;;;;7.25;40.89;98349.97;4395120;32;33775;-77
2023/03/11 12:48:52;;;;;;;;;;;;;;;7.12;41.59;98342.62;4371912;32;33561;-77
2023/03/11 12:51:26;;;;;;;;;;;;;;;7.50;41.57;98343.06;4418344;32;34121;-77
2023/03/11 12:53:54;;;;;;;;;;;;;;;7.43;41.29;98347.13;4409224;32;33023;-76
2023/03/11 12:56:43;;;;;;;4.20;0.77;;;;;;;7.16;40.32;98356.50;4399009;32;32396;-76
2023/03/11 12:59:29;;;;;;;;;;;;;;;6.93;41.17;98390.00;4419414;32;33900;-78
2023/03/11 13:02:08;;;;;;;2.45;0.77;;;;;;;7.47;41.12;98386.75;4409914;32;34084;-75